KHQM/HQM METAR and TAF weather

Enter ICAO airport designator
Station Type Date Time Source
KHQM METAR 2020/04/04 10:53 UTC NOAA

KHQM 041053Z AUTO 11008KT 10SM OVC050 03/02 A2992 RMK AO2 SLP133 T00330022


Station Type Date Time Source
KHQM Decoded METAR 2020/04/04 10:53 UTC NOAA

HOQUIAM BOWERMAN AIRPORT, WA, United States (KHQM) 46-58N 123-56W 7M
Apr 04, 2020 - 06:53 AM EDT / 2020.04.04 1053 UTC
Wind: from the ESE (110 degrees) at 9 MPH (8 KT):0
Visibility: 10 mile(s):0
Sky conditions: overcast
Temperature: 37.9 F (3.3 C)
Dew Point: 36.0 F (2.2 C)
Relative Humidity: 92%
Pressure (altimeter): 29.92 in. Hg (1013 hPa)
ob: KHQM 041053Z AUTO 11008KT 10SM OVC050 03/02 A2992 RMK AO2 SLP133 T00330022
cycle: 11

Station Type Date Time Source
KHQM TAF 2020/04/04 12:23 UTC NOAA

TAF KHQM 041123Z 0412/0512 08008KT P6SM OVC050
FM041500 VRB05KT P6SM OVC050

Example: see airport list